createdAt,value
2022-10-11T00:02:10.779Z,19.38
2022-10-11T00:04:38.505Z,19.59
2022-10-11T00:07:05.473Z,19.62
2022-10-11T00:09:32.398Z,19.52
2022-10-11T00:11:59.404Z,19.48
2022-10-11T00:14:27.427Z,19.58
2022-10-11T00:16:54.492Z,19.67
2022-10-11T00:19:21.336Z,19.46
2022-10-11T00:21:48.302Z,19.55
2022-10-11T00:24:16.149Z,19.43
2022-10-11T00:26:46.741Z,19.56
2022-10-11T00:29:14.164Z,19.68
2022-10-11T00:31:40.911Z,19.63
2022-10-11T00:34:08.520Z,19.49
2022-10-11T00:36:35.719Z,19.14
2022-10-11T00:39:02.916Z,19.44
2022-10-11T00:41:30.124Z,19.31
2022-10-11T00:44:17.534Z,19.57
2022-10-11T00:47:00.350Z,19.51
2022-10-11T00:49:39.811Z,19.66
2022-10-11T00:52:15.553Z,19.73
2022-10-11T00:54:45.714Z,19.68
2022-10-11T00:57:16.651Z,19.36
2022-10-11T00:59:48.206Z,19.04
2022-10-11T01:02:16.316Z,19.10
2022-10-11T01:04:43.753Z,19.43
2022-10-11T01:07:11.717Z,19.45
2022-10-11T01:09:38.633Z,19.46
2022-10-11T01:12:12.531Z,19.27
2022-10-11T01:14:46.196Z,19.30
2022-10-11T01:17:36.104Z,19.26
2022-10-11T01:20:21.753Z,18.93
2022-10-11T01:23:19.578Z,18.76
2022-10-11T01:26:11.215Z,18.67
2022-10-11T01:28:58.639Z,18.58
2022-10-11T01:31:32.107Z,18.71
2022-10-11T01:34:26.854Z,18.77
2022-10-11T01:37:19.255Z,18.63
2022-10-11T01:39:52.083Z,18.64
2022-10-11T01:42:20.349Z,18.73
2022-10-11T01:44:50.868Z,18.89
2022-10-11T01:47:20.329Z,18.75
2022-10-11T01:49:56.499Z,18.64
2022-10-11T01:52:25.391Z,18.70
2022-10-11T01:55:15.463Z,18.44
2022-10-11T01:58:06.881Z,18.57
2022-10-11T02:01:02.336Z,18.51
2022-10-11T02:03:36.582Z,18.72
2022-10-11T02:06:11.591Z,18.72
2022-10-11T02:09:04.519Z,18.33
2022-10-11T02:11:36.504Z,18.39
2022-10-11T02:14:32.707Z,18.17
2022-10-11T02:17:07.358Z,18.21
2022-10-11T02:19:42.722Z,18.32
2022-10-11T02:22:37.885Z,18.42
2022-10-11T02:25:10.075Z,18.29
2022-10-11T02:27:40.781Z,18.17
2022-10-11T02:30:09.288Z,18.43
2022-10-11T02:32:39.655Z,18.31
2022-10-11T02:35:07.155Z,18.74
2022-10-11T02:37:39.871Z,18.89
2022-10-11T02:40:11.184Z,18.83
2022-10-11T02:42:44.470Z,18.91
2022-10-11T02:45:17.516Z,18.34
2022-10-11T02:47:45.234Z,18.46
2022-10-11T02:50:13.462Z,18.39
2022-10-11T02:52:40.560Z,18.78
2022-10-11T02:55:08.180Z,18.90
2022-10-11T02:57:34.983Z,18.83
2022-10-11T03:00:01.908Z,19.11
2022-10-11T03:02:28.853Z,19.10
2022-10-11T03:04:55.639Z,19.08
2022-10-11T03:07:22.330Z,19.16
2022-10-11T03:09:49.094Z,19.05
2022-10-11T03:12:15.870Z,18.71
2022-10-11T03:14:42.805Z,18.79
2022-10-11T03:17:34.680Z,18.36
2022-10-11T03:19:56.469Z,18.88
2022-10-11T03:22:23.353Z,18.50
2022-10-11T03:24:50.334Z,18.92
2022-10-11T03:27:17.215Z,18.90
2022-10-11T03:29:44.054Z,18.83
2022-10-11T03:32:10.748Z,18.91
2022-10-11T03:34:37.587Z,19.08
2022-10-11T03:37:04.344Z,19.02
2022-10-11T03:39:31.207Z,18.89
2022-10-11T03:41:57.931Z,18.98
2022-10-11T03:44:24.816Z,18.76
2022-10-11T03:46:51.590Z,18.92
2022-10-11T03:49:18.363Z,18.91
2022-10-11T03:51:45.291Z,18.68
2022-10-11T03:54:12.200Z,18.73
2022-10-11T03:56:38.986Z,18.73
2022-10-11T03:59:05.844Z,19.15
2022-10-11T04:01:37.539Z,18.85
2022-10-11T04:04:05.824Z,18.85
2022-10-11T04:06:32.866Z,19.04
2022-10-11T04:08:59.805Z,19.00
2022-10-11T04:11:27.008Z,18.60
2022-10-11T04:13:54.005Z,18.66
2022-10-11T04:16:20.818Z,18.89
2022-10-11T04:18:47.561Z,18.98
2022-10-11T04:21:14.318Z,18.92
2022-10-11T04:23:41.292Z,18.88
2022-10-11T04:26:08.889Z,18.87
2022-10-11T04:28:36.317Z,18.92
2022-10-11T04:31:05.225Z,18.96
2022-10-11T04:33:32.055Z,18.96
2022-10-11T04:35:58.851Z,19.04
2022-10-11T04:38:25.918Z,18.94
2022-10-11T04:40:52.635Z,18.56
2022-10-11T04:43:19.454Z,18.31
2022-10-11T04:45:46.514Z,18.65
2022-10-11T04:48:14.083Z,18.70
2022-10-11T04:50:40.722Z,18.91
2022-10-11T04:53:07.779Z,18.89
2022-10-11T04:55:34.781Z,18.95
2022-10-11T04:58:02.190Z,19.08
2022-10-11T05:00:29.308Z,18.87
2022-10-11T05:02:56.124Z,19.05
2022-10-11T05:05:22.826Z,19.01
2022-10-11T05:07:49.732Z,18.96
2022-10-11T05:10:16.539Z,19.07
2022-10-11T05:12:43.338Z,18.82
2022-10-11T05:15:10.255Z,19.23
2022-10-11T05:17:37.268Z,19.06
2022-10-11T05:20:04.448Z,19.08
2022-10-11T05:22:31.290Z,19.19
2022-10-11T05:24:58.159Z,19.01
2022-10-11T05:27:24.956Z,18.77
2022-10-11T05:29:52.098Z,19.14
2022-10-11T05:32:18.784Z,19.19
2022-10-11T05:34:45.590Z,19.38
2022-10-11T05:37:12.278Z,19.21
2022-10-11T05:39:39.060Z,19.26
2022-10-11T05:42:09.765Z,19.15
2022-10-11T05:44:36.897Z,18.76
2022-10-11T05:47:03.609Z,18.86
2022-10-11T05:49:30.588Z,18.90
2022-10-11T05:51:57.301Z,19.00
2022-10-11T05:54:24.255Z,19.32
2022-10-11T05:56:50.966Z,19.19
2022-10-11T05:59:17.927Z,18.98
2022-10-11T06:01:45.722Z,19.27
2022-10-11T06:04:13.067Z,19.00
2022-10-11T06:06:40.827Z,19.20
2022-10-11T06:09:07.645Z,19.15
2022-10-11T06:11:34.955Z,19.33
2022-10-11T06:14:02.776Z,19.10
2022-10-11T06:16:31.025Z,18.74
2022-10-11T06:18:57.855Z,19.06
2022-10-11T06:21:24.954Z,19.18
2022-10-11T06:23:56.883Z,19.03
2022-10-11T06:26:27.184Z,18.80
2022-10-11T06:28:54.212Z,19.04
2022-10-11T06:31:21.055Z,18.90
2022-10-11T06:33:48.741Z,19.58
2022-10-11T06:36:16.894Z,19.62
2022-10-11T06:38:45.363Z,19.90
2022-10-11T06:41:13.927Z,19.94
2022-10-11T06:43:40.600Z,19.76
2022-10-11T06:46:08.413Z,19.70
2022-10-11T06:48:38.912Z,19.84
2022-10-11T06:51:06.122Z,19.62
2022-10-11T06:53:32.950Z,19.77
2022-10-11T06:56:05.104Z,19.70
2022-10-11T06:58:32.646Z,19.50
2022-10-11T07:01:08.229Z,19.66
2022-10-11T07:03:35.756Z,19.76
2022-10-11T07:06:11.240Z,19.41
2022-10-11T07:08:38.762Z,19.77
2022-10-11T07:11:12.004Z,19.88
2022-10-11T07:13:39.980Z,19.75
2022-10-11T07:16:09.901Z,19.94
2022-10-11T07:18:40.128Z,19.89
2022-10-11T07:21:10.613Z,19.72
2022-10-11T07:23:37.938Z,19.58
2022-10-11T07:26:07.067Z,19.85
2022-10-11T07:28:35.803Z,19.97
2022-10-11T07:31:07.056Z,19.94
2022-10-11T07:33:33.943Z,19.94
2022-10-11T07:36:01.099Z,20.02
2022-10-11T07:38:28.070Z,20.24
2022-10-11T07:40:55.016Z,20.34
2022-10-11T07:43:21.808Z,19.93
2022-10-11T07:45:53.701Z,19.83
2022-10-11T07:48:20.717Z,19.86
2022-10-11T07:50:47.673Z,19.89
2022-10-11T07:53:14.727Z,20.17
2022-10-11T07:55:42.338Z,20.24
2022-10-11T07:58:13.184Z,19.86
2022-10-11T08:00:42.870Z,20.05
2022-10-11T08:03:10.497Z,20.58
2022-10-11T08:05:39.146Z,20.84
2022-10-11T08:08:05.903Z,20.88
2022-10-11T08:10:38.492Z,20.83
2022-10-11T08:13:05.697Z,20.34
2022-10-11T08:15:32.531Z,20.28
2022-10-11T08:17:59.736Z,20.32
2022-10-11T08:20:26.415Z,20.52
2022-10-11T08:22:55.264Z,20.31
2022-10-11T08:25:21.956Z,20.32
2022-10-11T08:27:48.657Z,20.45
2022-10-11T08:30:15.714Z,20.52
2022-10-11T08:32:42.596Z,20.46
2022-10-11T08:35:09.331Z,20.47
2022-10-11T08:37:36.286Z,20.04
2022-10-11T08:40:03.418Z,20.42
2022-10-11T08:42:36.466Z,20.56
2022-10-11T08:45:11.757Z,20.37
2022-10-11T08:47:44.929Z,20.77
2022-10-11T08:50:19.884Z,20.79
2022-10-11T08:53:02.580Z,20.54
2022-10-11T08:55:34.883Z,20.38
2022-10-11T08:58:02.287Z,20.82
2022-10-11T09:00:32.943Z,20.78
2022-10-11T09:03:10.464Z,21.17
2022-10-11T09:06:03.689Z,21.11
2022-10-11T09:08:56.604Z,21.10
2022-10-11T09:11:57.420Z,20.93
2022-10-11T09:14:46.781Z,21.23
2022-10-11T09:17:55.309Z,21.40
2022-10-11T09:20:40.648Z,21.58
2022-10-11T09:23:13.599Z,21.61
2022-10-11T09:26:25.833Z,21.44
2022-10-11T09:29:12.536Z,21.21
2022-10-11T09:31:39.554Z,21.20
2022-10-11T09:34:11.813Z,21.41
2022-10-11T09:36:51.621Z,21.66
2022-10-11T09:39:32.098Z,21.63
2022-10-11T09:42:11.543Z,21.40
2022-10-11T09:44:49.715Z,21.63
2022-10-11T09:47:23.824Z,21.51
2022-10-11T09:49:59.315Z,21.76
2022-10-11T09:55:33.855Z,21.51
2022-10-11T09:58:00.865Z,21.35
2022-10-11T10:00:32.313Z,21.99
2022-10-11T10:03:02.347Z,22.34
2022-10-11T10:05:36.774Z,22.45
2022-10-11T10:08:24.757Z,22.10
2022-10-11T10:11:04.007Z,22.41
2022-10-11T10:13:43.390Z,22.35
2022-10-11T10:16:27.308Z,21.93
2022-10-11T10:19:02.310Z,22.38
2022-10-11T10:21:34.234Z,22.52
2022-10-11T10:24:17.271Z,21.95
2022-10-11T10:27:18.046Z,21.73
2022-10-11T10:30:04.824Z,22.39
2022-10-11T10:33:04.532Z,22.37
2022-10-11T10:36:17.747Z,23.25
2022-10-11T10:38:59.643Z,22.86
2022-10-11T10:41:26.776Z,22.81
2022-10-11T10:43:57.731Z,23.12
2022-10-11T10:46:55.442Z,22.82
2022-10-11T10:49:53.779Z,22.50
2022-10-11T10:52:55.148Z,23.04
2022-10-11T10:55:37.668Z,22.40
2022-10-11T10:58:23.522Z,23.39
2022-10-11T11:00:55.725Z,23.79
2022-10-11T11:03:33.208Z,23.98
2022-10-11T11:06:05.623Z,24.29
2022-10-11T11:09:09.730Z,24.28
2022-10-11T11:12:14.936Z,23.57
2022-10-11T11:14:53.449Z,23.81
2022-10-11T11:17:34.885Z,24.21
2022-10-11T11:20:04.387Z,23.18
2022-10-11T11:22:36.446Z,23.63
2022-10-11T11:25:24.156Z,24.16
2022-10-11T11:27:53.738Z,24.20
2022-10-11T11:30:54.523Z,23.75
2022-10-11T11:34:18.229Z,24.38
2022-10-11T11:36:49.498Z,23.38
2022-10-11T11:39:23.747Z,23.77
2022-10-11T11:42:00.815Z,23.93
2022-10-11T11:44:37.920Z,23.80
2022-10-11T11:47:30.139Z,23.77
2022-10-11T11:50:23.761Z,24.12
2022-10-11T11:53:05.090Z,23.55
2022-10-11T11:55:45.795Z,23.57
2022-10-11T11:58:50.488Z,22.91
2022-10-11T12:01:40.080Z,23.06
2022-10-11T12:04:38.074Z,23.67
2022-10-11T12:07:16.251Z,23.56
2022-10-11T12:09:51.587Z,22.58
2022-10-11T12:12:33.856Z,22.91
2022-10-11T12:15:09.971Z,23.19
2022-10-11T12:17:55.846Z,23.27
2022-10-11T12:20:34.612Z,22.82
2022-10-11T12:23:04.145Z,23.25
2022-10-11T12:25:40.695Z,23.38
2022-10-11T12:28:39.349Z,22.90
2022-10-11T12:31:23.781Z,23.07
2022-10-11T12:34:02.852Z,23.10
2022-10-11T12:36:35.763Z,22.76
2022-10-11T12:39:20.959Z,23.06
2022-10-11T12:41:48.076Z,23.08
2022-10-11T12:44:31.142Z,23.33
2022-10-11T12:47:14.091Z,23.16
2022-10-11T12:50:03.799Z,22.78
2022-10-11T12:52:49.975Z,23.09
2022-10-11T12:55:38.615Z,23.27
2022-10-11T12:58:17.913Z,23.19
2022-10-11T13:00:50.955Z,23.36
2022-10-11T13:03:42.231Z,23.08
2022-10-11T13:06:32.015Z,23.11
2022-10-11T13:09:11.027Z,23.20
2022-10-11T13:11:49.511Z,22.72
2022-10-11T13:14:23.137Z,23.08
2022-10-11T13:17:06.957Z,23.24
2022-10-11T13:22:29.209Z,22.65
2022-10-11T13:24:58.179Z,22.83
2022-10-11T13:27:27.445Z,22.97
2022-10-11T13:29:59.378Z,22.90
2022-10-11T13:32:31.089Z,22.93
2022-10-11T13:35:02.401Z,22.82
2022-10-11T13:37:30.644Z,23.08
2022-10-11T13:39:58.417Z,22.70
2022-10-11T13:42:31.474Z,22.52
2022-10-11T13:44:59.896Z,22.70
2022-10-11T13:47:29.568Z,22.83
2022-10-11T13:50:14.863Z,22.82
2022-10-11T13:52:50.213Z,22.55
2022-10-11T13:55:35.385Z,22.78
2022-10-11T13:58:11.978Z,22.79
2022-10-11T14:00:56.162Z,22.76
2022-10-11T14:03:25.983Z,22.86
2022-10-11T14:05:56.245Z,22.80
2022-10-11T14:08:35.675Z,22.31
2022-10-11T14:11:06.457Z,22.62
2022-10-11T14:13:33.791Z,22.49
2022-10-11T14:16:08.332Z,22.51
2022-10-11T14:18:47.407Z,22.74
2022-10-11T14:21:35.917Z,22.63
2022-10-11T14:24:08.143Z,22.50
2022-10-11T14:26:50.675Z,22.62
2022-10-11T14:29:29.408Z,22.48
2022-10-11T14:32:04.042Z,22.82
2022-10-11T14:34:31.787Z,22.78
2022-10-11T14:36:58.609Z,22.56
2022-10-11T14:39:28.272Z,22.80
2022-10-11T14:41:55.083Z,22.47
2022-10-11T14:44:22.714Z,22.47
2022-10-11T14:46:54.351Z,22.51
2022-10-11T14:49:27.617Z,22.70
2022-10-11T14:51:57.493Z,21.97
2022-10-11T14:54:25.774Z,22.06
2022-10-11T14:56:54.809Z,22.00
2022-10-11T14:59:25.339Z,22.13
2022-10-11T15:01:54.050Z,21.98
2022-10-11T15:04:21.634Z,22.09
2022-10-11T15:06:49.231Z,21.74
2022-10-11T15:09:17.298Z,21.59
2022-10-11T15:11:44.172Z,21.67
2022-10-11T15:14:10.931Z,21.00
2022-10-11T15:16:40.027Z,21.79
2022-10-11T15:19:10.874Z,21.52
2022-10-11T15:21:37.767Z,21.87
2022-10-11T15:24:04.600Z,21.73
2022-10-11T15:26:31.686Z,21.51
2022-10-11T15:28:58.533Z,21.32
2022-10-11T15:31:26.601Z,21.26
2022-10-11T15:33:59.526Z,21.75
2022-10-11T15:36:26.541Z,21.25
2022-10-11T15:38:53.327Z,21.23
2022-10-11T15:41:21.157Z,21.47
2022-10-11T15:43:49.504Z,21.36
2022-10-11T15:46:20.076Z,21.30
2022-10-11T15:48:47.140Z,20.91
2022-10-11T15:51:14.373Z,21.29
2022-10-11T15:53:41.152Z,21.17
2022-10-11T15:56:12.492Z,21.34
2022-10-11T15:58:41.647Z,20.82
2022-10-11T16:01:20.051Z,21.11
2022-10-11T16:03:49.179Z,21.29
2022-10-11T16:06:17.429Z,21.14
2022-10-11T16:08:44.667Z,21.37
2022-10-11T16:11:12.610Z,21.36
2022-10-11T16:13:39.750Z,21.14
2022-10-11T16:16:10.214Z,21.44
2022-10-11T16:18:37.856Z,21.56
2022-10-11T16:21:10.127Z,21.10
2022-10-11T16:23:40.182Z,21.07
2022-10-11T16:26:10.105Z,21.11
2022-10-11T16:28:37.808Z,20.88
2022-10-11T16:31:14.597Z,20.62
2022-10-11T16:33:47.830Z,21.10
2022-10-11T16:36:35.778Z,21.43
2022-10-11T16:39:11.908Z,21.27
2022-10-11T16:41:39.688Z,20.87
2022-10-11T16:44:07.270Z,21.14
2022-10-11T16:46:34.368Z,20.76
2022-10-11T16:49:01.167Z,21.14
2022-10-11T16:51:28.034Z,21.17
2022-10-11T16:53:54.712Z,21.22
2022-10-11T16:56:22.776Z,21.42
2022-10-11T16:58:50.525Z,21.50
2022-10-11T17:01:17.652Z,21.50
2022-10-11T17:03:46.703Z,21.57
2022-10-11T17:06:13.674Z,21.63
2022-10-11T17:08:40.447Z,21.63
2022-10-11T17:11:07.385Z,21.63
2022-10-11T17:13:34.141Z,21.52
2022-10-11T17:16:01.048Z,21.34
2022-10-11T17:18:28.143Z,21.40
2022-10-11T17:21:07.167Z,21.40
2022-10-11T17:23:35.862Z,21.38
2022-10-11T17:26:10.067Z,20.89
2022-10-11T17:28:38.878Z,21.10
2022-10-11T17:31:08.432Z,21.51
2022-10-11T17:33:36.186Z,21.30
2022-10-11T17:36:14.538Z,21.44
2022-10-11T17:38:41.437Z,21.53
2022-10-11T17:41:08.978Z,21.66
2022-10-11T17:43:36.293Z,21.33
2022-10-11T17:46:05.979Z,21.35
2022-10-11T17:48:39.141Z,21.42
2022-10-11T17:51:11.589Z,21.41
2022-10-11T17:53:39.278Z,21.45
2022-10-11T17:56:18.137Z,21.30
2022-10-11T17:58:47.075Z,20.94
2022-10-11T18:01:19.227Z,20.78
2022-10-11T18:03:57.754Z,21.00
2022-10-11T18:06:30.942Z,21.15
2022-10-11T18:09:01.229Z,21.01
2022-10-11T18:11:28.191Z,21.18
2022-10-11T18:13:55.035Z,21.31
2022-10-11T18:16:24.510Z,21.26
2022-10-11T18:18:51.547Z,21.33
2022-10-11T18:21:22.379Z,21.25
2022-10-11T18:23:50.461Z,21.21
2022-10-11T18:26:19.896Z,21.22
2022-10-11T18:28:48.786Z,21.22
2022-10-11T18:31:19.872Z,21.40
2022-10-11T18:33:48.204Z,21.10
2022-10-11T18:36:17.929Z,21.15
2022-10-11T18:38:49.071Z,21.11
2022-10-11T18:41:18.110Z,21.13
2022-10-11T18:43:50.276Z,21.21
2022-10-11T18:46:17.627Z,21.12
2022-10-11T18:48:46.703Z,21.22
2022-10-11T18:51:25.060Z,21.08
2022-10-11T18:53:52.900Z,21.00
2022-10-11T18:56:21.733Z,21.04
2022-10-11T18:58:50.333Z,21.04
2022-10-11T19:01:24.287Z,20.94
2022-10-11T19:03:53.992Z,20.93
2022-10-11T19:06:23.362Z,20.98
2022-10-11T19:09:02.097Z,20.93
2022-10-11T19:11:29.304Z,20.57
2022-10-11T19:14:01.249Z,20.76
2022-10-11T19:16:29.884Z,20.64
2022-10-11T19:18:57.168Z,20.46
2022-10-11T19:21:24.424Z,20.76
2022-10-11T19:23:51.211Z,20.45
2022-10-11T19:26:30.036Z,20.48
2022-10-11T19:29:02.755Z,20.53
2022-10-11T19:31:31.317Z,20.58
2022-10-11T19:33:58.384Z,20.44
2022-10-11T19:36:26.302Z,20.75
2022-10-11T19:38:56.944Z,20.85
2022-10-11T19:41:25.576Z,20.90
2022-10-11T19:43:52.699Z,20.86
2022-10-11T19:46:38.376Z,21.01
2022-10-11T19:49:09.298Z,20.32
2022-10-11T19:51:37.634Z,20.34
2022-10-11T19:54:08.070Z,20.75
2022-10-11T19:56:35.404Z,20.90
2022-10-11T19:59:03.599Z,20.27
2022-10-11T20:01:31.317Z,20.47
2022-10-11T20:04:02.342Z,20.62
2022-10-11T20:06:32.478Z,20.13
2022-10-11T20:09:27.401Z,20.26
2022-10-11T20:11:48.412Z,20.55
2022-10-11T20:14:15.227Z,20.65
2022-10-11T20:16:42.384Z,20.94
2022-10-11T20:19:09.203Z,20.75
2022-10-11T20:21:36.022Z,20.71
2022-10-11T20:24:03.998Z,20.54
2022-10-11T20:26:30.963Z,20.55
2022-10-11T20:28:58.238Z,20.51
2022-10-11T20:31:28.412Z,20.45
2022-10-11T20:34:06.192Z,20.52
2022-10-11T20:36:34.496Z,20.54
2022-10-11T20:39:01.596Z,20.47
2022-10-11T20:41:32.869Z,20.53
2022-10-11T20:44:01.369Z,20.41
2022-10-11T20:46:31.438Z,20.49
2022-10-11T20:49:03.165Z,20.34
2022-10-11T20:51:31.948Z,20.62
2022-10-11T20:53:59.654Z,20.68
2022-10-11T20:56:26.920Z,20.57
2022-10-11T20:58:55.233Z,20.75
2022-10-11T21:01:34.483Z,20.51
2022-10-11T21:04:01.959Z,20.63
2022-10-11T21:06:30.085Z,20.50
2022-10-11T21:08:57.249Z,20.27
2022-10-11T21:11:33.515Z,20.21
2022-10-11T21:14:03.334Z,20.37
2022-10-11T21:16:30.874Z,20.51
2022-10-11T21:18:59.423Z,20.16
2022-10-11T21:21:27.914Z,20.43
2022-10-11T21:23:59.874Z,20.61
2022-10-11T21:26:28.664Z,20.43
2022-10-11T21:28:55.455Z,20.32
2022-10-11T21:31:23.213Z,20.39
2022-10-11T21:33:50.547Z,20.32
2022-10-11T21:36:20.830Z,20.21
2022-10-11T21:38:48.429Z,20.15
2022-10-11T21:41:20.834Z,20.16
2022-10-11T21:43:48.379Z,20.07
2022-10-11T21:46:18.681Z,20.22
2022-10-11T21:48:46.344Z,20.35
2022-10-11T21:51:15.725Z,20.36
2022-10-11T21:53:42.688Z,20.30
2022-10-11T21:56:09.484Z,20.46
2022-10-11T21:58:36.288Z,20.54
2022-10-11T22:01:03.530Z,20.58
2022-10-11T22:03:30.396Z,20.54
2022-10-11T22:05:57.243Z,20.55
2022-10-11T22:08:24.136Z,20.60
2022-10-11T22:10:56.366Z,20.41
2022-10-11T22:13:24.127Z,20.43
2022-10-11T22:15:51.136Z,20.47
2022-10-11T22:18:18.167Z,20.51
2022-10-11T22:20:45.328Z,20.41
2022-10-11T22:23:12.128Z,20.27
2022-10-11T22:25:39.870Z,20.20
2022-10-11T22:28:07.209Z,20.23
2022-10-11T22:30:34.814Z,20.33
2022-10-11T22:33:01.660Z,20.49
2022-10-11T22:35:29.147Z,20.37
2022-10-11T22:37:58.276Z,20.23
2022-10-11T22:40:27.368Z,20.11
2022-10-11T22:42:54.060Z,19.97
2022-10-11T22:45:20.966Z,20.07
2022-10-11T22:47:47.758Z,19.87
2022-10-11T22:50:14.623Z,20.22
2022-10-11T22:52:41.429Z,20.14
2022-10-11T22:55:08.848Z,20.04
2022-10-11T22:57:35.872Z,19.95
2022-10-11T23:00:02.797Z,20.04
2022-10-11T23:02:29.640Z,20.08
2022-10-11T23:04:56.768Z,19.91
2022-10-11T23:07:23.509Z,20.01
2022-10-11T23:09:50.416Z,19.97
2022-10-11T23:12:17.156Z,20.05
2022-10-11T23:14:43.904Z,19.96
2022-10-11T23:17:10.761Z,19.96
2022-10-11T23:19:37.510Z,20.04
2022-10-11T23:22:04.477Z,20.03
2022-10-11T23:24:31.261Z,19.99
2022-10-11T23:26:58.210Z,20.07
2022-10-11T23:29:25.976Z,19.96
2022-10-11T23:31:52.795Z,19.98
2022-10-11T23:34:19.445Z,19.98
2022-10-11T23:36:46.297Z,19.95
2022-10-11T23:39:13.233Z,19.80
2022-10-11T23:41:39.988Z,19.62
2022-10-11T23:44:06.707Z,19.55
2022-10-11T23:46:33.608Z,19.74
2022-10-11T23:49:00.331Z,19.80
2022-10-11T23:51:27.485Z,19.96
2022-10-11T23:53:54.632Z,19.86
2022-10-11T23:56:21.995Z,19.55
2022-10-11T23:58:48.812Z,19.65
